sensor_id;sensor_type;location;lat;lon;timestamp;temperature;humidity
19060;DHT22;9663;48.996;8.334;2024-03-25T00:00:46;10.80;56.10
19060;DHT22;9663;48.996;8.334;2024-03-25T00:03:12;10.70;56.00
19060;DHT22;9663;48.996;8.334;2024-03-25T00:05:38;10.70;56.00
19060;DHT22;9663;48.996;8.334;2024-03-25T00:08:04;10.70;56.10
19060;DHT22;9663;48.996;8.334;2024-03-25T00:10:29;10.70;56.10
19060;DHT22;9663;48.996;8.334;2024-03-25T00:12:55;10.70;56.10
19060;DHT22;9663;48.996;8.334;2024-03-25T00:15:22;10.70;56.00
19060;DHT22;9663;48.996;8.334;2024-03-25T00:17:49;10.70;56.10
19060;DHT22;9663;48.996;8.334;2024-03-25T00:20:15;10.70;56.20
19060;DHT22;9663;48.996;8.334;2024-03-25T00:22:41;10.70;56.10
19060;DHT22;9663;48.996;8.334;2024-03-25T00:25:07;10.70;56.10
19060;DHT22;9663;48.996;8.334;2024-03-25T00:27:34;10.70;56.10
19060;DHT22;9663;48.996;8.334;2024-03-25T00:30:00;10.70;56.20
19060;DHT22;9663;48.996;8.334;2024-03-25T00:32:26;10.70;56.20
19060;DHT22;9663;48.996;8.334;2024-03-25T00:34:52;10.60;56.20
19060;DHT22;9663;48.996;8.334;2024-03-25T00:37:18;10.70;56.20
19060;DHT22;9663;48.996;8.334;2024-03-25T00:39:44;10.70;56.20
19060;DHT22;9663;48.996;8.334;2024-03-25T00:42:10;10.70;56.20
19060;DHT22;9663;48.996;8.334;2024-03-25T00:44:37;10.70;56.30
19060;DHT22;9663;48.996;8.334;2024-03-25T00:47:03;10.70;56.20
19060;DHT22;9663;48.996;8.334;2024-03-25T00:49:29;10.70;56.30
19060;DHT22;9663;48.996;8.334;2024-03-25T00:51:55;10.70;56.20
19060;DHT22;9663;48.996;8.334;2024-03-25T00:54:21;10.70;56.90
19060;DHT22;9663;48.996;8.334;2024-03-25T00:56:49;10.70;56.20
19060;DHT22;9663;48.996;8.334;2024-03-25T00:59:15;10.60;56.20
19060;DHT22;9663;48.996;8.334;2024-03-25T01:01:40;10.70;56.30
19060;DHT22;9663;48.996;8.334;2024-03-25T01:04:06;10.60;56.90
19060;DHT22;9663;48.996;8.334;2024-03-25T01:06:33;10.60;56.30
19060;DHT22;9663;48.996;8.334;2024-03-25T01:08:59;10.60;56.30
19060;DHT22;9663;48.996;8.334;2024-03-25T01:11:24;10.60;56.30
19060;DHT22;9663;48.996;8.334;2024-03-25T01:13:50;10.60;56.40
19060;DHT22;9663;48.996;8.334;2024-03-25T01:16:16;10.60;56.40
19060;DHT22;9663;48.996;8.334;2024-03-25T01:18:42;10.60;56.30
19060;DHT22;9663;48.996;8.334;2024-03-25T01:21:08;10.60;56.40
19060;DHT22;9663;48.996;8.334;2024-03-25T01:23:34;10.60;56.40
19060;DHT22;9663;48.996;8.334;2024-03-25T01:25:59;10.60;56.40
19060;DHT22;9663;48.996;8.334;2024-03-25T01:28:25;10.60;56.30
19060;DHT22;9663;48.996;8.334;2024-03-25T01:30:51;10.60;56.30
19060;DHT22;9663;48.996;8.334;2024-03-25T01:33:17;10.60;56.40
19060;DHT22;9663;48.996;8.334;2024-03-25T01:35:42;10.60;56.40
19060;DHT22;9663;48.996;8.334;2024-03-25T01:38:08;10.60;56.40
19060;DHT22;9663;48.996;8.334;2024-03-25T01:40:34;10.60;56.40
19060;DHT22;9663;48.996;8.334;2024-03-25T01:43:02;10.60;56.40
19060;DHT22;9663;48.996;8.334;2024-03-25T01:45:30;10.60;56.50
19060;DHT22;9663;48.996;8.334;2024-03-25T01:48:07;10.60;56.50
19060;DHT22;9663;48.996;8.334;2024-03-25T01:50:38;10.60;56.60
19060;DHT22;9663;48.996;8.334;2024-03-25T01:53:07;10.50;56.40
19060;DHT22;9663;48.996;8.334;2024-03-25T01:55:35;10.50;56.50
19060;DHT22;9663;48.996;8.334;2024-03-25T01:58:05;10.50;56.60
19060;DHT22;9663;48.996;8.334;2024-03-25T02:00:32;10.50;56.60
19060;DHT22;9663;48.996;8.334;2024-03-25T02:02:58;10.50;56.50
19060;DHT22;9663;48.996;8.334;2024-03-25T02:05:24;10.50;56.50
19060;DHT22;9663;48.996;8.334;2024-03-25T02:07:51;10.50;56.50
19060;DHT22;9663;48.996;8.334;2024-03-25T02:10:17;10.50;56.60
19060;DHT22;9663;48.996;8.334;2024-03-25T02:12:44;10.50;56.60
19060;DHT22;9663;48.996;8.334;2024-03-25T02:15:12;10.50;56.50
19060;DHT22;9663;48.996;8.334;2024-03-25T02:17:41;10.50;56.60
19060;DHT22;9663;48.996;8.334;2024-03-25T02:20:07;10.50;56.60
19060;DHT22;9663;48.996;8.334;2024-03-25T02:22:34;10.50;56.60
19060;DHT22;9663;48.996;8.334;2024-03-25T02:25:06;10.50;56.70
19060;DHT22;9663;48.996;8.334;2024-03-25T02:27:37;10.50;56.70
19060;DHT22;9663;48.996;8.334;2024-03-25T02:30:08;10.50;56.70
19060;DHT22;9663;48.996;8.334;2024-03-25T02:32:38;10.50;56.70
19060;DHT22;9663;48.996;8.334;2024-03-25T02:35:06;10.50;56.70
19060;DHT22;9663;48.996;8.334;2024-03-25T02:37:36;10.50;56.70
19060;DHT22;9663;48.996;8.334;2024-03-25T02:40:04;10.40;57.40
19060;DHT22;9663;48.996;8.334;2024-03-25T02:42:32;10.50;56.80
19060;DHT22;9663;48.996;8.334;2024-03-25T02:44:58;10.50;56.80
19060;DHT22;9663;48.996;8.334;2024-03-25T02:47:26;10.50;56.80
19060;DHT22;9663;48.996;8.334;2024-03-25T02:49:52;10.50;56.80
19060;DHT22;9663;48.996;8.334;2024-03-25T02:52:21;10.50;56.70
19060;DHT22;9663;48.996;8.334;2024-03-25T02:54:47;10.50;56.80
19060;DHT22;9663;48.996;8.334;2024-03-25T02:57:12;10.50;56.80
19060;DHT22;9663;48.996;8.334;2024-03-25T02:59:38;10.50;56.80
19060;DHT22;9663;48.996;8.334;2024-03-25T03:02:04;10.50;56.80
19060;DHT22;9663;48.996;8.334;2024-03-25T03:04:30;10.50;56.80
19060;DHT22;9663;48.996;8.334;2024-03-25T03:06:56;10.50;56.80
19060;DHT22;9663;48.996;8.334;2024-03-25T03:09:22;10.50;56.80
19060;DHT22;9663;48.996;8.334;2024-03-25T03:11:48;10.50;56.70
19060;DHT22;9663;48.996;8.334;2024-03-25T03:14:14;10.50;56.80
19060;DHT22;9663;48.996;8.334;2024-03-25T03:16:40;10.50;56.80
19060;DHT22;9663;48.996;8.334;2024-03-25T03:19:05;10.50;56.80
19060;DHT22;9663;48.996;8.334;2024-03-25T03:21:31;10.50;56.70
19060;DHT22;9663;48.996;8.334;2024-03-25T03:23:57;10.40;56.70
19060;DHT22;9663;48.996;8.334;2024-03-25T03:26:23;10.40;56.70
19060;DHT22;9663;48.996;8.334;2024-03-25T03:28:53;10.40;56.70
19060;DHT22;9663;48.996;8.334;2024-03-25T03:31:19;10.40;56.80
19060;DHT22;9663;48.996;8.334;2024-03-25T03:33:49;10.40;56.80
19060;DHT22;9663;48.996;8.334;2024-03-25T03:36:19;10.40;56.80
19060;DHT22;9663;48.996;8.334;2024-03-25T03:38:47;10.40;56.80
19060;DHT22;9663;48.996;8.334;2024-03-25T03:41:13;10.40;56.80
19060;DHT22;9663;48.996;8.334;2024-03-25T03:43:38;10.30;56.80
19060;DHT22;9663;48.996;8.334;2024-03-25T03:46:04;10.30;56.80
19060;DHT22;9663;48.996;8.334;2024-03-25T03:48:30;10.30;56.80
19060;DHT22;9663;48.996;8.334;2024-03-25T03:50:56;10.30;56.80
19060;DHT22;9663;48.996;8.334;2024-03-25T03:53:22;10.30;56.90
19060;DHT22;9663;48.996;8.334;2024-03-25T03:55:59;10.30;56.80
19060;DHT22;9663;48.996;8.334;2024-03-25T03:58:27;10.30;56.90
19060;DHT22;9663;48.996;8.334;2024-03-25T04:00:54;10.30;56.80
19060;DHT22;9663;48.996;8.334;2024-03-25T04:03:20;10.30;56.80
19060;DHT22;9663;48.996;8.334;2024-03-25T04:05:46;10.30;56.90
19060;DHT22;9663;48.996;8.334;2024-03-25T04:08:12;10.30;56.90
19060;DHT22;9663;48.996;8.334;2024-03-25T04:10:38;10.30;57.00
19060;DHT22;9663;48.996;8.334;2024-03-25T04:13:05;10.30;57.00
19060;DHT22;9663;48.996;8.334;2024-03-25T04:15:35;10.30;56.90
19060;DHT22;9663;48.996;8.334;2024-03-25T04:18:01;10.30;56.90
19060;DHT22;9663;48.996;8.334;2024-03-25T04:20:27;10.30;56.90
19060;DHT22;9663;48.996;8.334;2024-03-25T04:22:56;10.30;56.90
19060;DHT22;9663;48.996;8.334;2024-03-25T04:25:22;10.20;56.80
19060;DHT22;9663;48.996;8.334;2024-03-25T04:27:48;10.20;56.90
19060;DHT22;9663;48.996;8.334;2024-03-25T04:30:14;10.20;56.90
19060;DHT22;9663;48.996;8.334;2024-03-25T04:32:40;10.30;57.00
19060;DHT22;9663;48.996;8.334;2024-03-25T04:35:07;10.20;56.90
19060;DHT22;9663;48.996;8.334;2024-03-25T04:37:34;10.20;56.90
19060;DHT22;9663;48.996;8.334;2024-03-25T04:40:01;10.20;57.00
19060;DHT22;9663;48.996;8.334;2024-03-25T04:42:30;10.20;57.00
19060;DHT22;9663;48.996;8.334;2024-03-25T04:44:55;10.20;57.00
19060;DHT22;9663;48.996;8.334;2024-03-25T04:47:22;10.10;56.90
19060;DHT22;9663;48.996;8.334;2024-03-25T04:49:48;10.10;56.90
19060;DHT22;9663;48.996;8.334;2024-03-25T04:52:14;10.10;57.50
19060;DHT22;9663;48.996;8.334;2024-03-25T04:54:44;10.00;56.90
19060;DHT22;9663;48.996;8.334;2024-03-25T04:57:10;10.00;57.00
19060;DHT22;9663;48.996;8.334;2024-03-25T04:59:36;9.90;57.00
19060;DHT22;9663;48.996;8.334;2024-03-25T05:02:02;9.90;57.10
19060;DHT22;9663;48.996;8.334;2024-03-25T05:04:29;9.90;57.10
19060;DHT22;9663;48.996;8.334;2024-03-25T05:06:55;9.80;57.10
19060;DHT22;9663;48.996;8.334;2024-03-25T05:09:20;9.80;57.20
19060;DHT22;9663;48.996;8.334;2024-03-25T05:11:46;9.80;57.20
19060;DHT22;9663;48.996;8.334;2024-03-25T05:14:12;9.80;57.30
19060;DHT22;9663;48.996;8.334;2024-03-25T05:16:38;9.80;57.30
19060;DHT22;9663;48.996;8.334;2024-03-25T05:19:04;9.80;57.30
19060;DHT22;9663;48.996;8.334;2024-03-25T05:21:33;9.80;57.40
19060;DHT22;9663;48.996;8.334;2024-03-25T05:23:59;9.80;57.50
19060;DHT22;9663;48.996;8.334;2024-03-25T05:26:25;9.80;57.40
19060;DHT22;9663;48.996;8.334;2024-03-25T05:28:55;9.80;57.50
19060;DHT22;9663;48.996;8.334;2024-03-25T05:31:21;9.80;57.60
19060;DHT22;9663;48.996;8.334;2024-03-25T05:33:47;9.80;57.50
19060;DHT22;9663;48.996;8.334;2024-03-25T05:36:13;9.80;57.50
19060;DHT22;9663;48.996;8.334;2024-03-25T05:38:40;9.80;57.50
19060;DHT22;9663;48.996;8.334;2024-03-25T05:41:07;9.80;57.50
19060;DHT22;9663;48.996;8.334;2024-03-25T05:43:33;9.80;57.50
19060;DHT22;9663;48.996;8.334;2024-03-25T05:45:58;9.80;57.50
19060;DHT22;9663;48.996;8.334;2024-03-25T05:48:25;9.80;57.50
19060;DHT22;9663;48.996;8.334;2024-03-25T05:53:34;9.80;57.70
19060;DHT22;9663;48.996;8.334;2024-03-25T05:56:01;9.80;57.50
19060;DHT22;9663;48.996;8.334;2024-03-25T05:58:27;9.80;57.50
19060;DHT22;9663;48.996;8.334;2024-03-25T06:00:53;9.80;57.50
19060;DHT22;9663;48.996;8.334;2024-03-25T06:05:54;9.80;57.60
19060;DHT22;9663;48.996;8.334;2024-03-25T06:08:20;9.90;57.60
19060;DHT22;9663;48.996;8.334;2024-03-25T06:11:01;9.90;57.70
19060;DHT22;9663;48.996;8.334;2024-03-25T06:15:55;10.00;57.80
19060;DHT22;9663;48.996;8.334;2024-03-25T06:18:21;10.00;57.70
19060;DHT22;9663;48.996;8.334;2024-03-25T06:20:47;10.10;57.80
19060;DHT22;9663;48.996;8.334;2024-03-25T06:23:26;10.10;58.50
19060;DHT22;9663;48.996;8.334;2024-03-25T06:25:54;10.20;58.00
19060;DHT22;9663;48.996;8.334;2024-03-25T06:30:56;10.40;57.80
19060;DHT22;9663;48.996;8.334;2024-03-25T06:33:40;10.50;57.70
19060;DHT22;9663;48.996;8.334;2024-03-25T06:36:24;10.50;57.50
19060;DHT22;9663;48.996;8.334;2024-03-25T06:38:50;10.60;57.50
19060;DHT22;9663;48.996;8.334;2024-03-25T06:41:16;10.70;57.60
19060;DHT22;9663;48.996;8.334;2024-03-25T06:43:42;10.80;57.70
19060;DHT22;9663;48.996;8.334;2024-03-25T06:46:07;10.90;57.70
19060;DHT22;9663;48.996;8.334;2024-03-25T06:48:34;11.00;57.70
19060;DHT22;9663;48.996;8.334;2024-03-25T06:51:03;11.10;57.60
19060;DHT22;9663;48.996;8.334;2024-03-25T06:53:29;11.30;57.50
19060;DHT22;9663;48.996;8.334;2024-03-25T06:55:55;11.30;57.90
19060;DHT22;9663;48.996;8.334;2024-03-25T06:58:23;11.40;57.20
19060;DHT22;9663;48.996;8.334;2024-03-25T07:00:51;11.50;57.10
19060;DHT22;9663;48.996;8.334;2024-03-25T07:03:19;11.50;57.00
19060;DHT22;9663;48.996;8.334;2024-03-25T07:05:46;11.60;57.20
19060;DHT22;9663;48.996;8.334;2024-03-25T07:08:13;11.70;56.90
19060;DHT22;9663;48.996;8.334;2024-03-25T07:10:41;11.70;56.80
19060;DHT22;9663;48.996;8.334;2024-03-25T07:13:07;11.80;56.90
19060;DHT22;9663;48.996;8.334;2024-03-25T07:15:33;11.80;56.80
19060;DHT22;9663;48.996;8.334;2024-03-25T07:17:59;11.90;56.70
19060;DHT22;9663;48.996;8.334;2024-03-25T07:20:25;12.00;56.50
19060;DHT22;9663;48.996;8.334;2024-03-25T07:22:52;12.00;56.50
19060;DHT22;9663;48.996;8.334;2024-03-25T07:25:23;12.00;56.40
19060;DHT22;9663;48.996;8.334;2024-03-25T07:27:50;12.10;56.50
19060;DHT22;9663;48.996;8.334;2024-03-25T07:30:16;12.10;56.50
19060;DHT22;9663;48.996;8.334;2024-03-25T07:32:42;12.20;56.60
19060;DHT22;9663;48.996;8.334;2024-03-25T07:35:10;12.30;56.50
19060;DHT22;9663;48.996;8.334;2024-03-25T07:37:36;12.40;56.50
19060;DHT22;9663;48.996;8.334;2024-03-25T07:40:02;12.40;56.30
19060;DHT22;9663;48.996;8.334;2024-03-25T07:42:29;12.50;56.00
19060;DHT22;9663;48.996;8.334;2024-03-25T07:44:56;12.50;55.90
19060;DHT22;9663;48.996;8.334;2024-03-25T07:47:21;12.60;55.90
19060;DHT22;9663;48.996;8.334;2024-03-25T07:49:47;12.60;55.90
19060;DHT22;9663;48.996;8.334;2024-03-25T07:52:13;12.60;55.90
19060;DHT22;9663;48.996;8.334;2024-03-25T07:54:39;12.60;55.90
19060;DHT22;9663;48.996;8.334;2024-03-25T07:57:05;12.70;56.00
19060;DHT22;9663;48.996;8.334;2024-03-25T07:59:30;12.80;56.00
19060;DHT22;9663;48.996;8.334;2024-03-25T08:01:56;12.80;56.00
19060;DHT22;9663;48.996;8.334;2024-03-25T08:04:22;12.90;56.00
19060;DHT22;9663;48.996;8.334;2024-03-25T08:06:48;13.00;56.00
19060;DHT22;9663;48.996;8.334;2024-03-25T08:09:14;13.10;56.00
19060;DHT22;9663;48.996;8.334;2024-03-25T08:11:41;13.20;55.80
19060;DHT22;9663;48.996;8.334;2024-03-25T08:14:09;13.30;55.70
19060;DHT22;9663;48.996;8.334;2024-03-25T08:16:35;13.40;55.60
19060;DHT22;9663;48.996;8.334;2024-03-25T08:19:01;13.50;55.60
19060;DHT22;9663;48.996;8.334;2024-03-25T08:21:27;13.60;55.30
19060;DHT22;9663;48.996;8.334;2024-03-25T08:23:53;13.70;55.30
19060;DHT22;9663;48.996;8.334;2024-03-25T08:26:19;13.70;55.30
19060;DHT22;9663;48.996;8.334;2024-03-25T08:28:44;13.80;55.10
19060;DHT22;9663;48.996;8.334;2024-03-25T08:31:10;13.90;55.00
19060;DHT22;9663;48.996;8.334;2024-03-25T08:33:36;14.00;55.00
19060;DHT22;9663;48.996;8.334;2024-03-25T08:36:02;14.00;55.00
19060;DHT22;9663;48.996;8.334;2024-03-25T08:38:28;14.10;55.00
19060;DHT22;9663;48.996;8.334;2024-03-25T08:40:54;14.30;55.00
19060;DHT22;9663;48.996;8.334;2024-03-25T08:43:20;14.40;54.90
19060;DHT22;9663;48.996;8.334;2024-03-25T08:45:45;14.50;54.60
19060;DHT22;9663;48.996;8.334;2024-03-25T08:48:12;14.60;54.60
19060;DHT22;9663;48.996;8.334;2024-03-25T08:50:37;14.70;54.40
19060;DHT22;9663;48.996;8.334;2024-03-25T08:53:03;14.70;54.40
19060;DHT22;9663;48.996;8.334;2024-03-25T08:55:30;14.80;54.30
19060;DHT22;9663;48.996;8.334;2024-03-25T08:57:57;14.90;54.20
19060;DHT22;9663;48.996;8.334;2024-03-25T09:00:28;15.00;53.90
19060;DHT22;9663;48.996;8.334;2024-03-25T09:02:54;15.00;53.70
19060;DHT22;9663;48.996;8.334;2024-03-25T09:05:21;15.00;53.30
19060;DHT22;9663;48.996;8.334;2024-03-25T09:07:50;15.10;53.30
19060;DHT22;9663;48.996;8.334;2024-03-25T09:10:20;15.10;53.40
19060;DHT22;9663;48.996;8.334;2024-03-25T09:13:05;15.10;53.30
19060;DHT22;9663;48.996;8.334;2024-03-25T09:15:30;15.20;53.50
19060;DHT22;9663;48.996;8.334;2024-03-25T09:17:56;15.30;53.60
19060;DHT22;9663;48.996;8.334;2024-03-25T09:20:22;15.40;53.40
19060;DHT22;9663;48.996;8.334;2024-03-25T09:22:48;15.50;53.20
19060;DHT22;9663;48.996;8.334;2024-03-25T09:25:15;15.60;53.00
19060;DHT22;9663;48.996;8.334;2024-03-25T09:27:45;15.70;52.90
19060;DHT22;9663;48.996;8.334;2024-03-25T09:30:11;15.70;52.80
19060;DHT22;9663;48.996;8.334;2024-03-25T09:32:37;15.80;52.80
19060;DHT22;9663;48.996;8.334;2024-03-25T09:35:04;15.90;52.50
19060;DHT22;9663;48.996;8.334;2024-03-25T09:37:30;15.90;52.10
19060;DHT22;9663;48.996;8.334;2024-03-25T09:39:57;15.90;51.80
19060;DHT22;9663;48.996;8.334;2024-03-25T09:42:28;15.90;52.10
19060;DHT22;9663;48.996;8.334;2024-03-25T09:44:59;15.90;52.00
19060;DHT22;9663;48.996;8.334;2024-03-25T09:47:25;16.00;52.10
19060;DHT22;9663;48.996;8.334;2024-03-25T09:49:54;16.00;52.10
19060;DHT22;9663;48.996;8.334;2024-03-25T09:52:20;16.10;51.90
19060;DHT22;9663;48.996;8.334;2024-03-25T09:54:46;16.20;51.80
19060;DHT22;9663;48.996;8.334;2024-03-25T09:57:12;16.20;51.80
19060;DHT22;9663;48.996;8.334;2024-03-25T09:59:41;16.30;51.80
19060;DHT22;9663;48.996;8.334;2024-03-25T10:02:10;16.40;51.50
19060;DHT22;9663;48.996;8.334;2024-03-25T10:04:48;16.50;51.60
19060;DHT22;9663;48.996;8.334;2024-03-25T10:07:24;16.50;50.80
19060;DHT22;9663;48.996;8.334;2024-03-25T10:09:53;16.70;50.70
19060;DHT22;9663;48.996;8.334;2024-03-25T10:12:22;16.70;51.20
19060;DHT22;9663;48.996;8.334;2024-03-25T10:14:48;16.80;51.00
19060;DHT22;9663;48.996;8.334;2024-03-25T10:17:14;16.90;51.00
19060;DHT22;9663;48.996;8.334;2024-03-25T10:19:40;17.00;51.00
19060;DHT22;9663;48.996;8.334;2024-03-25T10:22:07;17.10;51.00
19060;DHT22;9663;48.996;8.334;2024-03-25T10:24:44;17.20;50.90
19060;DHT22;9663;48.996;8.334;2024-03-25T10:27:21;17.40;50.40
19060;DHT22;9663;48.996;8.334;2024-03-25T10:29:55;17.60;50.30
19060;DHT22;9663;48.996;8.334;2024-03-25T10:32:20;17.80;50.00
19060;DHT22;9663;48.996;8.334;2024-03-25T10:34:50;17.90;50.10
19060;DHT22;9663;48.996;8.334;2024-03-25T10:37:17;18.00;49.80
19060;DHT22;9663;48.996;8.334;2024-03-25T10:39:49;18.10;49.50
19060;DHT22;9663;48.996;8.334;2024-03-25T10:42:20;18.20;49.30
19060;DHT22;9663;48.996;8.334;2024-03-25T10:44:49;18.30;49.50
19060;DHT22;9663;48.996;8.334;2024-03-25T10:47:20;18.50;49.20
19060;DHT22;9663;48.996;8.334;2024-03-25T10:49:59;18.60;49.00
19060;DHT22;9663;48.996;8.334;2024-03-25T10:52:36;18.70;48.80
19060;DHT22;9663;48.996;8.334;2024-03-25T10:55:03;18.70;48.20
19060;DHT22;9663;48.996;8.334;2024-03-25T10:57:30;18.60;47.90
19060;DHT22;9663;48.996;8.334;2024-03-25T10:59:57;18.50;47.30
19060;DHT22;9663;48.996;8.334;2024-03-25T11:02:24;18.40;47.50
19060;DHT22;9663;48.996;8.334;2024-03-25T11:04:51;18.30;47.60
19060;DHT22;9663;48.996;8.334;2024-03-25T11:07:30;18.20;47.00
19060;DHT22;9663;48.996;8.334;2024-03-25T11:10:06;18.10;46.10
19060;DHT22;9663;48.996;8.334;2024-03-25T11:12:38;18.20;47.10
19060;DHT22;9663;48.996;8.334;2024-03-25T11:15:07;18.30;47.30
19060;DHT22;9663;48.996;8.334;2024-03-25T11:17:36;18.40;46.70
19060;DHT22;9663;48.996;8.334;2024-03-25T11:20:10;18.40;46.80
19060;DHT22;9663;48.996;8.334;2024-03-25T11:22:51;18.40;46.20
19060;DHT22;9663;48.996;8.334;2024-03-25T11:25:19;18.40;46.00
19060;DHT22;9663;48.996;8.334;2024-03-25T11:27:47;18.50;45.70
19060;DHT22;9663;48.996;8.334;2024-03-25T11:30:14;18.50;46.10
19060;DHT22;9663;48.996;8.334;2024-03-25T11:32:52;18.60;46.20
19060;DHT22;9663;48.996;8.334;2024-03-25T11:35:20;19.00;45.60
19060;DHT22;9663;48.996;8.334;2024-03-25T11:37:46;19.70;46.50
19060;DHT22;9663;48.996;8.334;2024-03-25T11:40:13;20.30;46.60
19060;DHT22;9663;48.996;8.334;2024-03-25T11:42:41;21.10;46.90
19060;DHT22;9663;48.996;8.334;2024-03-25T11:45:21;22.00;46.80
19060;DHT22;9663;48.996;8.334;2024-03-25T11:47:48;22.80;44.40
19060;DHT22;9663;48.996;8.334;2024-03-25T11:50:16;23.50;44.70
19060;DHT22;9663;48.996;8.334;2024-03-25T11:52:43;24.10;43.90
19060;DHT22;9663;48.996;8.334;2024-03-25T11:55:10;24.40;39.70
19060;DHT22;9663;48.996;8.334;2024-03-25T11:57:40;24.80;41.10
19060;DHT22;9663;48.996;8.334;2024-03-25T12:00:07;25.20;41.30
19060;DHT22;9663;48.996;8.334;2024-03-25T12:02:39;25.70;41.10
19060;DHT22;9663;48.996;8.334;2024-03-25T12:05:11;26.30;41.30
19060;DHT22;9663;48.996;8.334;2024-03-25T12:07:37;26.80;40.60
19060;DHT22;9663;48.996;8.334;2024-03-25T12:10:05;27.20;39.60
19060;DHT22;9663;48.996;8.334;2024-03-25T12:12:50;27.40;38.80
19060;DHT22;9663;48.996;8.334;2024-03-25T12:15:16;27.40;34.80
19060;DHT22;9663;48.996;8.334;2024-03-25T12:17:42;27.40;36.60
19060;DHT22;9663;48.996;8.334;2024-03-25T12:20:09;27.40;37.50
19060;DHT22;9663;48.996;8.334;2024-03-25T12:22:36;27.50;37.30
19060;DHT22;9663;48.996;8.334;2024-03-25T12:25:06;27.60;37.00
19060;DHT22;9663;48.996;8.334;2024-03-25T12:27:34;27.80;36.60
19060;DHT22;9663;48.996;8.334;2024-03-25T12:30:02;28.10;37.10
19060;DHT22;9663;48.996;8.334;2024-03-25T12:32:35;28.40;36.90
19060;DHT22;9663;48.996;8.334;2024-03-25T12:35:10;28.40;35.40
19060;DHT22;9663;48.996;8.334;2024-03-25T12:37:37;28.00;34.60
19060;DHT22;9663;48.996;8.334;2024-03-25T12:40:09;27.70;35.40
19060;DHT22;9663;48.996;8.334;2024-03-25T12:42:37;27.70;36.20
19060;DHT22;9663;48.996;8.334;2024-03-25T12:45:04;28.00;36.20
19060;DHT22;9663;48.996;8.334;2024-03-25T12:47:31;28.40;36.20
19060;DHT22;9663;48.996;8.334;2024-03-25T12:49:57;28.80;35.90
19060;DHT22;9663;48.996;8.334;2024-03-25T12:52:23;29.00;34.90
19060;DHT22;9663;48.996;8.334;2024-03-25T12:54:49;28.90;34.00
19060;DHT22;9663;48.996;8.334;2024-03-25T12:57:15;28.40;33.10
19060;DHT22;9663;48.996;8.334;2024-03-25T12:59:41;27.90;33.40
19060;DHT22;9663;48.996;8.334;2024-03-25T13:02:09;27.60;33.70
19060;DHT22;9663;48.996;8.334;2024-03-25T13:04:37;27.50;33.60
19060;DHT22;9663;48.996;8.334;2024-03-25T13:07:04;27.70;34.70
19060;DHT22;9663;48.996;8.334;2024-03-25T13:09:30;28.00;34.70
19060;DHT22;9663;48.996;8.334;2024-03-25T13:11:57;28.40;34.70
19060;DHT22;9663;48.996;8.334;2024-03-25T13:14:23;28.90;34.60
19060;DHT22;9663;48.996;8.334;2024-03-25T13:16:48;29.40;34.50
19060;DHT22;9663;48.996;8.334;2024-03-25T13:19:14;29.80;33.90
19060;DHT22;9663;48.996;8.334;2024-03-25T13:21:41;29.90;32.60
19060;DHT22;9663;48.996;8.334;2024-03-25T13:24:07;29.80;32.90
19060;DHT22;9663;48.996;8.334;2024-03-25T13:26:33;30.00;33.10
19060;DHT22;9663;48.996;8.334;2024-03-25T13:28:59;30.10;33.00
19060;DHT22;9663;48.996;8.334;2024-03-25T13:31:25;30.20;33.00
19060;DHT22;9663;48.996;8.334;2024-03-25T13:33:51;30.00;32.40
19060;DHT22;9663;48.996;8.334;2024-03-25T13:36:17;29.70;31.90
19060;DHT22;9663;48.996;8.334;2024-03-25T13:38:43;29.40;31.70
19060;DHT22;9663;48.996;8.334;2024-03-25T13:41:09;28.90;31.10
19060;DHT22;9663;48.996;8.334;2024-03-25T13:43:35;28.40;31.10
19060;DHT22;9663;48.996;8.334;2024-03-25T13:46:01;28.00;31.20
19060;DHT22;9663;48.996;8.334;2024-03-25T13:48:27;27.70;31.70
19060;DHT22;9663;48.996;8.334;2024-03-25T13:50:54;27.60;32.20
19060;DHT22;9663;48.996;8.334;2024-03-25T13:53:20;27.80;31.80
19060;DHT22;9663;48.996;8.334;2024-03-25T13:55:46;28.20;31.40
19060;DHT22;9663;48.996;8.334;2024-03-25T13:58:12;28.50;31.50
19060;DHT22;9663;48.996;8.334;2024-03-25T14:00:38;28.90;31.60
19060;DHT22;9663;48.996;8.334;2024-03-25T14:03:04;29.20;31.00
19060;DHT22;9663;48.996;8.334;2024-03-25T14:05:30;29.50;30.80
19060;DHT22;9663;48.996;8.334;2024-03-25T14:07:55;29.80;31.20
19060;DHT22;9663;48.996;8.334;2024-03-25T14:10:24;30.20;31.10
19060;DHT22;9663;48.996;8.334;2024-03-25T14:12:50;30.60;30.30
19060;DHT22;9663;48.996;8.334;2024-03-25T14:15:16;31.00;30.80
19060;DHT22;9663;48.996;8.334;2024-03-25T14:17:41;31.50;30.70
19060;DHT22;9663;48.996;8.334;2024-03-25T14:20:07;31.90;30.30
19060;DHT22;9663;48.996;8.334;2024-03-25T14:22:34;32.30;30.00
19060;DHT22;9663;48.996;8.334;2024-03-25T14:25:00;32.60;29.80
19060;DHT22;9663;48.996;8.334;2024-03-25T14:27:26;32.90;29.40
19060;DHT22;9663;48.996;8.334;2024-03-25T14:29:52;33.10;29.10
19060;DHT22;9663;48.996;8.334;2024-03-25T14:32:22;33.40;28.90
19060;DHT22;9663;48.996;8.334;2024-03-25T14:34:48;33.50;28.10
19060;DHT22;9663;48.996;8.334;2024-03-25T14:37:14;33.60;28.20
19060;DHT22;9663;48.996;8.334;2024-03-25T14:39:41;33.60;27.80
19060;DHT22;9663;48.996;8.334;2024-03-25T14:42:10;33.70;27.90
19060;DHT22;9663;48.996;8.334;2024-03-25T14:44:37;33.70;27.30
19060;DHT22;9663;48.996;8.334;2024-03-25T14:47:03;33.80;27.60
19060;DHT22;9663;48.996;8.334;2024-03-25T14:49:30;33.90;27.60
19060;DHT22;9663;48.996;8.334;2024-03-25T14:51:56;34.00;27.30
19060;DHT22;9663;48.996;8.334;2024-03-25T14:54:22;34.10;27.10
19060;DHT22;9663;48.996;8.334;2024-03-25T14:56:48;34.10;26.70
19060;DHT22;9663;48.996;8.334;2024-03-25T14:59:14;34.10;26.70
19060;DHT22;9663;48.996;8.334;2024-03-25T15:01:40;34.10;26.30
19060;DHT22;9663;48.996;8.334;2024-03-25T15:04:06;34.10;26.40
19060;DHT22;9663;48.996;8.334;2024-03-25T15:06:33;34.00;26.30
19060;DHT22;9663;48.996;8.334;2024-03-25T15:08:59;34.00;26.10
19060;DHT22;9663;48.996;8.334;2024-03-25T15:11:25;34.00;26.00
19060;DHT22;9663;48.996;8.334;2024-03-25T15:13:54;34.00;26.00
19060;DHT22;9663;48.996;8.334;2024-03-25T15:16:20;34.00;25.60
19060;DHT22;9663;48.996;8.334;2024-03-25T15:18:46;34.10;26.40
19060;DHT22;9663;48.996;8.334;2024-03-25T15:21:12;34.10;25.70
19060;DHT22;9663;48.996;8.334;2024-03-25T15:23:38;34.10;25.60
19060;DHT22;9663;48.996;8.334;2024-03-25T15:26:03;34.10;25.40
19060;DHT22;9663;48.996;8.334;2024-03-25T15:28:29;34.10;25.40
19060;DHT22;9663;48.996;8.334;2024-03-25T15:30:56;34.10;25.10
19060;DHT22;9663;48.996;8.334;2024-03-25T15:33:22;34.10;25.10
19060;DHT22;9663;48.996;8.334;2024-03-25T15:35:48;34.10;25.10
19060;DHT22;9663;48.996;8.334;2024-03-25T15:38:17;34.00;24.70
19060;DHT22;9663;48.996;8.334;2024-03-25T15:40:44;33.90;24.60
19060;DHT22;9663;48.996;8.334;2024-03-25T15:43:16;33.70;24.30
19060;DHT22;9663;48.996;8.334;2024-03-25T15:45:42;33.60;24.50
19060;DHT22;9663;48.996;8.334;2024-03-25T15:48:08;33.40;24.50
19060;DHT22;9663;48.996;8.334;2024-03-25T15:50:35;33.30;24.30
19060;DHT22;9663;48.996;8.334;2024-03-25T15:53:00;33.10;24.40
19060;DHT22;9663;48.996;8.334;2024-03-25T15:55:26;32.90;24.50
19060;DHT22;9663;48.996;8.334;2024-03-25T15:57:53;32.80;24.60